createdAt,value
2022-08-03T04:25:19.357Z,1.02
2022-08-03T04:28:20.930Z,1.20
2022-08-03T04:30:39.016Z,0.98
2022-08-03T04:33:06.877Z,1.10
2022-08-03T04:36:01.228Z,1.00
2022-08-03T04:38:28.732Z,1.15
2022-08-03T04:40:56.803Z,1.15
2022-08-03T04:43:25.645Z,1.40
2022-08-03T04:45:54.787Z,1.00
2022-08-03T04:48:21.759Z,1.23
2022-08-03T04:50:48.674Z,1.00
2022-08-03T04:53:18.195Z,1.00
2022-08-03T04:55:48.380Z,1.50
2022-08-03T04:58:15.143Z,1.90
2022-08-03T05:00:42.397Z,1.40
2022-08-03T05:03:23.988Z,1.42
2022-08-03T05:05:52.989Z,3.22
2022-08-03T05:08:27.644Z,1.38
2022-08-03T05:10:59.061Z,1.45
2022-08-03T05:13:26.499Z,1.60
2022-08-03T05:15:53.247Z,1.08
2022-08-03T05:19:17.036Z,1.42
2022-08-03T05:22:12.167Z,1.17
2022-08-03T05:25:02.559Z,1.90
2022-08-03T05:28:28.974Z,1.40
2022-08-03T05:30:55.610Z,2.47
2022-08-03T05:33:22.095Z,2.30
2022-08-03T05:36:01.182Z,1.90
2022-08-03T05:39:11.853Z,2.35
2022-08-03T05:42:08.935Z,2.38
2022-08-03T05:44:42.036Z,1.95
2022-08-03T05:47:08.619Z,3.00
2022-08-03T05:49:38.655Z,2.78
2022-08-03T05:52:18.434Z,1.88
2022-08-03T05:54:56.469Z,2.17
2022-08-03T05:57:31.893Z,2.08
2022-08-03T05:59:58.972Z,1.90
2022-08-03T06:02:28.675Z,2.00
2022-08-03T06:05:36.532Z,2.58
2022-08-03T06:08:11.179Z,2.55
2022-08-03T06:10:50.956Z,2.42
2022-08-03T06:14:09.865Z,1.92
2022-08-03T06:16:36.582Z,2.17
2022-08-03T06:19:04.313Z,1.85
2022-08-03T06:21:56.387Z,2.00
2022-08-03T06:24:25.228Z,2.20
2022-08-03T06:26:52.074Z,2.58
2022-08-03T06:29:21.434Z,2.00
2022-08-03T06:31:53.138Z,2.13
2022-08-03T06:34:32.916Z,1.90
2022-08-03T06:37:02.480Z,1.83
2022-08-03T06:39:39.566Z,2.17
2022-08-03T06:42:06.345Z,2.20
2022-08-03T06:45:04.091Z,1.60
2022-08-03T06:47:30.587Z,1.85
2022-08-03T06:50:12.580Z,2.15
2022-08-03T06:52:43.255Z,1.52
2022-08-03T06:55:10.182Z,1.70
2022-08-03T06:57:36.843Z,1.40
2022-08-03T07:00:08.226Z,1.48
2022-08-03T07:02:41.026Z,1.45
2022-08-03T07:05:09.285Z,1.75
2022-08-03T07:07:37.400Z,1.38
2022-08-03T07:10:05.329Z,1.27
2022-08-03T07:12:32.941Z,1.40
2022-08-03T07:15:02.660Z,1.33
2022-08-03T07:17:57.236Z,1.58
2022-08-03T07:20:24.494Z,1.42
2022-08-03T07:22:54.315Z,1.30
2022-08-03T07:25:20.934Z,1.23
2022-08-03T07:27:51.688Z,1.60
2022-08-03T07:30:20.525Z,1.58
2022-08-03T07:32:50.363Z,1.52
2022-08-03T07:35:33.371Z,1.35
2022-08-03T07:38:01.080Z,1.38
2022-08-03T07:40:31.768Z,1.65
2022-08-03T07:43:04.989Z,1.65
2022-08-03T07:45:35.843Z,1.45
2022-08-03T07:48:02.365Z,1.58
2022-08-03T07:50:29.325Z,1.92
2022-08-03T07:53:21.303Z,1.70
2022-08-03T07:55:49.017Z,1.35
2022-08-03T07:58:23.633Z,1.35
2022-08-03T08:00:53.142Z,1.20
2022-08-03T08:03:52.689Z,1.33
2022-08-03T08:06:21.964Z,1.58
2022-08-03T08:08:48.731Z,1.27
2022-08-03T08:11:15.498Z,1.70
2022-08-03T08:13:42.248Z,1.35
2022-08-03T08:16:08.961Z,1.23
2022-08-03T08:18:35.574Z,1.70
2022-08-03T08:21:03.393Z,1.20
2022-08-03T08:23:42.853Z,1.55
2022-08-03T08:26:13.019Z,1.35
2022-08-03T08:28:39.836Z,1.23
2022-08-03T08:31:06.691Z,1.23
2022-08-03T08:34:05.211Z,1.20
2022-08-03T08:36:24.785Z,1.20
2022-08-03T08:39:17.536Z,1.20
2022-08-03T08:41:47.357Z,1.25
2022-08-03T08:44:22.062Z,0.98
2022-08-03T08:47:19.140Z,1.15
2022-08-03T08:50:10.145Z,1.10
2022-08-03T08:53:28.698Z,1.08
2022-08-03T08:56:06.310Z,0.98
2022-08-03T09:01:49.414Z,1.60
2022-08-03T09:04:24.039Z,1.20
2022-08-03T09:07:19.761Z,1.25
2022-08-03T09:10:11.822Z,1.30
2022-08-03T09:12:56.315Z,1.02
2022-08-03T09:15:40.394Z,1.02
2022-08-03T09:18:27.110Z,1.02
2022-08-03T09:21:50.956Z,1.40
2022-08-03T09:24:41.060Z,1.13
2022-08-03T09:28:01.708Z,1.17
2022-08-03T09:30:43.471Z,0.98
2022-08-03T09:33:35.982Z,1.35
2022-08-03T09:36:47.002Z,1.00
2022-08-03T09:39:41.040Z,1.00
2022-08-03T09:42:25.476Z,1.33
2022-08-03T09:48:59.759Z,1.25
2022-08-03T09:52:38.329Z,0.95
2022-08-03T09:56:35.701Z,0.70
2022-08-03T09:59:28.863Z,1.23
2022-08-03T10:02:15.279Z,1.00
2022-08-03T10:04:53.977Z,2.15
2022-08-03T10:07:22.126Z,0.90
2022-08-03T10:10:30.013Z,1.30
2022-08-03T10:12:57.724Z,0.90
2022-08-03T10:16:23.116Z,1.08
2022-08-03T10:18:12.935Z,0.98
2022-08-03T10:21:15.346Z,1.08
2022-08-03T10:23:42.731Z,0.97
2022-08-03T10:29:16.972Z,1.10
2022-08-03T10:31:57.834Z,1.15
2022-08-03T10:34:35.222Z,0.93
2022-08-03T10:37:12.152Z,1.27
2022-08-03T10:39:56.151Z,0.80
2022-08-03T10:42:28.297Z,1.58
2022-08-03T10:45:07.127Z,1.07
2022-08-03T10:48:04.899Z,1.23
2022-08-03T10:50:31.954Z,0.77
2022-08-03T10:53:09.239Z,1.08
2022-08-03T10:56:05.474Z,1.00
2022-08-03T10:58:57.130Z,1.00
2022-08-03T11:01:58.823Z,1.50
2022-08-03T11:04:30.165Z,1.23
2022-08-03T11:07:15.647Z,0.95
2022-08-03T11:09:49.437Z,0.90
2022-08-03T11:12:46.305Z,1.17
2022-08-03T11:15:14.865Z,1.33
2022-08-03T11:18:10.974Z,1.08
2022-08-03T11:20:55.924Z,1.23
2022-08-03T11:24:03.940Z,1.00
2022-08-03T11:26:33.177Z,1.10
2022-08-03T11:29:27.404Z,1.27
2022-08-03T11:31:54.029Z,1.30
2022-08-03T11:34:21.019Z,0.90
2022-08-03T11:37:23.117Z,1.33
2022-08-03T11:39:52.925Z,2.20
2022-08-03T11:42:38.807Z,1.48
2022-08-03T11:45:07.825Z,1.17
2022-08-03T11:47:37.513Z,1.33
2022-08-03T11:50:19.148Z,1.27
2022-08-03T11:52:47.701Z,1.60
2022-08-03T11:55:21.682Z,2.20
2022-08-03T11:59:10.592Z,1.95
2022-08-03T12:00:45.211Z,1.35
2022-08-03T12:03:14.814Z,0.90
2022-08-03T12:05:52.832Z,1.35
2022-08-03T12:08:28.558Z,1.10
2022-08-03T12:11:00.027Z,1.00
2022-08-03T12:14:44.570Z,1.20
2022-08-03T12:16:19.586Z,1.10
2022-08-03T12:18:54.881Z,1.05
2022-08-03T12:21:24.637Z,1.13
2022-08-03T12:24:04.049Z,1.23
2022-08-03T12:26:43.861Z,1.20
2022-08-03T12:29:20.453Z,1.15
2022-08-03T12:31:47.559Z,0.93
2022-08-03T12:34:15.243Z,1.13
2022-08-03T12:36:52.201Z,1.15
2022-08-03T12:39:24.981Z,1.17
2022-08-03T12:41:55.257Z,1.02
2022-08-03T12:44:32.681Z,0.90
2022-08-03T12:47:00.012Z,1.00
2022-08-03T12:49:28.167Z,0.63
2022-08-03T12:52:01.732Z,1.40
2022-08-03T12:54:39.120Z,0.93
2022-08-03T12:57:10.944Z,1.20
2022-08-03T12:59:55.862Z,1.50
2022-08-03T13:02:25.227Z,0.85
2022-08-03T13:04:59.373Z,0.80
2022-08-03T13:07:27.149Z,1.48
2022-08-03T13:09:55.869Z,0.90
2022-08-03T13:12:26.545Z,1.00
2022-08-03T13:14:56.403Z,1.42
2022-08-03T13:17:23.204Z,1.23
2022-08-03T13:19:51.419Z,1.00
2022-08-03T13:22:20.946Z,0.60
2022-08-03T13:24:49.302Z,1.10
2022-08-03T13:28:01.432Z,0.93
2022-08-03T13:30:03.991Z,0.77
2022-08-03T13:32:30.750Z,0.90
2022-08-03T13:34:57.347Z,0.80
2022-08-03T13:37:24.127Z,0.70
2022-08-03T13:39:59.648Z,0.90
2022-08-03T13:42:36.410Z,1.13
2022-08-03T13:45:03.820Z,0.70
2022-08-03T13:47:30.809Z,0.90
2022-08-03T13:50:00.157Z,1.00
2022-08-03T13:53:11.670Z,1.00
2022-08-03T13:55:35.046Z,0.90
2022-08-03T13:58:07.471Z,0.55
2022-08-03T14:03:14.126Z,0.63
2022-08-03T14:05:44.646Z,0.60
2022-08-03T14:08:11.917Z,0.40
2022-08-03T14:10:41.377Z,0.70
2022-08-03T14:13:12.174Z,0.80
2022-08-03T14:15:43.199Z,0.70
2022-08-03T14:18:43.868Z,0.70
2022-08-03T14:21:10.884Z,0.63
2022-08-03T14:23:38.901Z,0.80
2022-08-03T14:26:07.539Z,0.63
2022-08-03T14:28:40.566Z,0.98
2022-08-03T14:31:08.318Z,0.50
2022-08-03T14:33:53.875Z,0.60
2022-08-03T14:36:20.434Z,0.88
2022-08-03T14:38:46.952Z,0.70
2022-08-03T14:41:20.038Z,0.80
2022-08-03T14:44:01.521Z,0.60
2022-08-03T14:46:34.829Z,0.68
2022-08-03T14:50:37.227Z,0.70
2022-08-03T14:52:24.064Z,0.98
2022-08-03T14:55:07.419Z,0.60
2022-08-03T14:57:53.519Z,0.70
2022-08-03T15:00:35.668Z,0.65
2022-08-03T15:03:49.607Z,0.70
2022-08-03T15:10:00.368Z,0.77
2022-08-03T15:16:09.623Z,0.75
2022-08-03T15:20:03.680Z,1.08
2022-08-03T15:22:42.137Z,0.60
2022-08-03T15:26:03.645Z,0.68
2022-08-03T15:28:46.276Z,0.50
2022-08-03T15:31:25.295Z,0.85
2022-08-03T15:33:58.133Z,0.70
2022-08-03T15:36:24.791Z,0.60
2022-08-03T15:38:52.416Z,0.85
2022-08-03T15:41:19.379Z,0.57
2022-08-03T15:43:47.750Z,0.70
2022-08-03T15:46:30.300Z,0.60
2022-08-03T15:48:56.944Z,0.70
2022-08-03T15:51:23.644Z,1.08
2022-08-03T15:53:51.216Z,0.75
2022-08-03T15:56:18.824Z,1.20
2022-08-03T15:59:09.863Z,0.60
2022-08-03T16:01:35.342Z,0.73
2022-08-03T16:04:02.873Z,0.57
2022-08-03T16:06:36.562Z,0.52
2022-08-03T16:09:23.557Z,0.85
2022-08-03T16:11:55.669Z,0.60
2022-08-03T16:14:34.341Z,0.60
2022-08-03T16:17:10.386Z,0.50
2022-08-03T16:19:41.190Z,1.02
2022-08-03T16:22:08.685Z,0.50
2022-08-03T16:24:38.501Z,0.80
2022-08-03T16:27:17.632Z,0.57
2022-08-03T16:29:58.637Z,0.70
2022-08-03T16:32:25.128Z,0.82
2022-08-03T16:35:21.357Z,0.50
2022-08-03T16:37:54.593Z,0.68
2022-08-03T16:40:24.789Z,0.57
2022-08-03T16:42:51.374Z,0.77
2022-08-03T16:45:23.527Z,0.60
2022-08-03T16:48:05.367Z,0.75
2022-08-03T16:50:33.010Z,0.80
2022-08-03T16:52:59.590Z,0.70
2022-08-03T16:55:43.498Z,0.75
2022-08-03T16:58:15.042Z,0.70
2022-08-03T17:00:43.037Z,0.65
2022-08-03T17:03:12.353Z,0.68
2022-08-03T17:05:47.202Z,0.95
2022-08-03T17:08:15.370Z,0.95
2022-08-03T17:10:45.586Z,0.80
2022-08-03T17:13:21.759Z,1.02
2022-08-03T17:16:01.313Z,0.70
2022-08-03T17:18:34.144Z,0.88
2022-08-03T17:21:06.815Z,0.80
2022-08-03T17:24:15.021Z,0.93
2022-08-03T17:26:50.142Z,0.70
2022-08-03T17:29:26.682Z,1.00
2022-08-03T17:31:56.519Z,0.70
2022-08-03T17:34:26.630Z,0.73
2022-08-03T17:37:49.820Z,0.60
2022-08-03T17:39:59.835Z,0.63
2022-08-03T17:42:30.494Z,0.85
2022-08-03T17:45:02.019Z,0.60
2022-08-03T17:47:42.389Z,0.93
2022-08-03T17:53:15.462Z,0.73
2022-08-03T17:56:40.770Z,0.63
2022-08-03T17:59:08.898Z,0.80
2022-08-03T18:02:29.957Z,1.08
2022-08-03T18:05:15.995Z,0.90
2022-08-03T18:07:50.782Z,1.17
2022-08-03T18:10:32.289Z,0.82
2022-08-03T18:13:10.294Z,0.90
2022-08-03T18:15:46.059Z,0.63
2022-08-03T18:18:16.207Z,0.98
2022-08-03T18:20:56.746Z,0.80
2022-08-03T18:23:36.639Z,0.80
2022-08-03T18:26:07.799Z,0.80
2022-08-03T18:28:39.159Z,0.95
2022-08-03T18:31:11.589Z,0.90
2022-08-03T18:36:30.280Z,0.70
2022-08-03T18:38:59.665Z,0.65
2022-08-03T18:41:33.521Z,0.88
2022-08-03T18:44:08.304Z,0.98
2022-08-03T18:47:16.079Z,0.80
2022-08-03T18:50:04.700Z,0.50
2022-08-03T18:52:58.173Z,0.90
2022-08-03T18:55:32.959Z,1.10
2022-08-03T18:58:09.503Z,0.93
2022-08-03T19:00:58.418Z,0.95
2022-08-03T19:03:41.522Z,1.20
2022-08-03T19:06:19.664Z,1.70
2022-08-03T19:09:03.131Z,1.42
2022-08-03T19:14:41.575Z,1.00
2022-08-03T19:17:11.891Z,1.30
2022-08-03T19:20:42.680Z,1.30
2022-08-03T19:23:15.435Z,1.58
2022-08-03T19:25:45.359Z,1.17
2022-08-03T19:28:11.901Z,1.35
2022-08-03T19:30:46.276Z,1.80
2022-08-03T19:36:07.223Z,0.95
2022-08-03T19:38:38.071Z,1.05
2022-08-03T19:41:09.565Z,1.50
2022-08-03T19:43:52.786Z,1.33
2022-08-03T19:46:31.027Z,1.10
2022-08-03T19:49:10.579Z,1.38
2022-08-03T19:52:01.370Z,0.90
2022-08-03T19:54:52.787Z,1.30
2022-08-03T19:57:24.412Z,1.50
2022-08-03T19:59:53.157Z,1.20
2022-08-03T20:02:26.597Z,1.38
2022-08-03T20:04:59.844Z,1.30
2022-08-03T20:07:28.813Z,0.90
2022-08-03T20:10:05.483Z,1.10
2022-08-03T20:12:39.260Z,1.10
2022-08-03T20:15:07.261Z,1.30
2022-08-03T20:18:02.851Z,0.70
2022-08-03T20:20:38.852Z,1.00
2022-08-03T20:23:18.708Z,2.20
2022-08-03T20:25:58.835Z,2.22
2022-08-03T20:28:50.426Z,1.38
2022-08-03T20:31:32.203Z,1.45
2022-08-03T20:36:49.693Z,2.35
2022-08-03T20:39:16.633Z,1.70
2022-08-03T20:42:01.387Z,1.27
2022-08-03T20:48:36.773Z,1.40
2022-08-03T20:51:50.207Z,1.20
2022-08-03T20:54:23.026Z,1.98
2022-08-03T20:57:03.877Z,3.72
2022-08-03T20:59:47.052Z,2.15
2022-08-03T21:02:19.722Z,0.98
2022-08-03T21:04:55.928Z,1.80
2022-08-03T21:07:24.245Z,2.33
2022-08-03T21:09:52.928Z,1.73
2022-08-03T21:12:44.950Z,1.50
2022-08-03T21:12:55.448Z,0.85
2022-08-03T21:16:04.746Z,2.30
2022-08-03T21:18:10.901Z,1.67
2022-08-03T21:20:38.825Z,2.90
2022-08-03T21:23:08.827Z,1.58
2022-08-03T21:25:35.636Z,3.50
2022-08-03T21:28:02.147Z,2.50
2022-08-03T21:30:30.244Z,2.30
2022-08-03T21:32:58.328Z,3.35
2022-08-03T21:35:25.424Z,2.55
2022-08-03T21:38:11.554Z,1.85
2022-08-03T21:40:40.333Z,2.85
2022-08-03T21:43:06.893Z,3.92
2022-08-03T21:45:41.826Z,1.70
2022-08-03T21:48:10.303Z,1.52
2022-08-03T21:50:37.293Z,1.20
2022-08-03T21:53:04.780Z,2.15
2022-08-03T21:55:34.382Z,1.40
2022-08-03T21:58:04.776Z,1.20
